Terminal Aerodrome Forecast
Issued by NWS Charleston, WV

Home | Current Version | Previous Version | Text Only | Print | Product List | Glossary On
Versions: 1 2 3 4 5 6 7 8 9 10 11 12 13 14 15 16 17 18 19 20 21 22 23
000
FTUS41 KRLX 221740
TAFHTS
TAF
KHTS 221740Z 2218/2318 23008KT P6SM SCT060
     FM222000 23008KT P6SM VCTS BKN050CB
     FM230400 23006KT 6SM SHRA VCTS SCT050CB
     FM230600 23006KT P6SM SCT050
     FM231200 24007KT P6SM BKN070=

USA.gov is the U.S. government's official web portal to all federal, state and local government web resources and services.